sensor_id;sensor_type;location;lat;lon;timestamp;P1;durP1;ratioP1;P2;durP2;ratioP2
18720;SDS011;9489;50.948;3.114;2023-06-26T00:02:12;6.38;;;4.63;;
18720;SDS011;9489;50.948;3.114;2023-06-26T00:04:38;9.00;;;5.20;;
18720;SDS011;9489;50.948;3.114;2023-06-26T00:07:04;8.07;;;4.82;;
18720;SDS011;9489;50.948;3.114;2023-06-26T00:09:30;7.57;;;5.63;;
18720;SDS011;9489;50.948;3.114;2023-06-26T00:11:57;8.25;;;5.53;;
18720;SDS011;9489;50.948;3.114;2023-06-26T00:14:24;9.73;;;6.03;;
18720;SDS011;9489;50.948;3.114;2023-06-26T00:16:51;9.88;;;5.70;;
18720;SDS011;9489;50.948;3.114;2023-06-26T00:19:17;9.30;;;5.40;;
18720;SDS011;9489;50.948;3.114;2023-06-26T00:21:43;11.15;;;5.55;;
18720;SDS011;9489;50.948;3.114;2023-06-26T00:24:16;10.23;;;5.90;;
18720;SDS011;9489;50.948;3.114;2023-06-26T00:26:42;10.95;;;6.68;;
18720;SDS011;9489;50.948;3.114;2023-06-26T00:29:11;8.07;;;6.10;;
18720;SDS011;9489;50.948;3.114;2023-06-26T00:31:36;10.30;;;6.10;;
18720;SDS011;9489;50.948;3.114;2023-06-26T00:34:03;10.60;;;6.18;;
18720;SDS011;9489;50.948;3.114;2023-06-26T00:36:29;9.95;;;6.05;;
18720;SDS011;9489;50.948;3.114;2023-06-26T00:38:55;9.98;;;6.18;;
18720;SDS011;9489;50.948;3.114;2023-06-26T00:41:21;11.80;;;6.10;;
18720;SDS011;9489;50.948;3.114;2023-06-26T00:43:46;9.00;;;6.72;;
18720;SDS011;9489;50.948;3.114;2023-06-26T00:46:12;14.43;;;6.70;;
18720;SDS011;9489;50.948;3.114;2023-06-26T00:48:39;12.68;;;7.13;;
18720;SDS011;9489;50.948;3.114;2023-06-26T00:51:07;11.63;;;6.47;;
18720;SDS011;9489;50.948;3.114;2023-06-26T00:53:33;12.00;;;6.85;;
18720;SDS011;9489;50.948;3.114;2023-06-26T00:55:59;12.93;;;7.43;;
18720;SDS011;9489;50.948;3.114;2023-06-26T00:58:27;12.85;;;6.43;;
18720;SDS011;9489;50.948;3.114;2023-06-26T01:00:53;9.57;;;7.03;;
18720;SDS011;9489;50.948;3.114;2023-06-26T01:03:20;11.07;;;6.85;;
18720;SDS011;9489;50.948;3.114;2023-06-26T01:05:47;12.43;;;7.00;;
18720;SDS011;9489;50.948;3.114;2023-06-26T01:08:15;12.82;;;6.35;;
18720;SDS011;9489;50.948;3.114;2023-06-26T01:10:41;9.93;;;6.80;;
18720;SDS011;9489;50.948;3.114;2023-06-26T01:13:08;14.80;;;7.18;;
18720;SDS011;9489;50.948;3.114;2023-06-26T01:15:34;12.52;;;6.97;;
18720;SDS011;9489;50.948;3.114;2023-06-26T01:18:00;13.00;;;7.28;;
18720;SDS011;9489;50.948;3.114;2023-06-26T01:20:28;12.32;;;6.97;;
18720;SDS011;9489;50.948;3.114;2023-06-26T01:28:31;13.77;;;7.82;;
18720;SDS011;9489;50.948;3.114;2023-06-26T01:31:00;11.40;;;6.85;;
18720;SDS011;9489;50.948;3.114;2023-06-26T01:33:27;18.83;;;7.60;;
18720;SDS011;9489;50.948;3.114;2023-06-26T01:35:54;17.30;;;7.82;;
18720;SDS011;9489;50.948;3.114;2023-06-26T01:38:20;12.50;;;7.22;;
18720;SDS011;9489;50.948;3.114;2023-06-26T01:40:48;17.38;;;8.88;;
18720;SDS011;9489;50.948;3.114;2023-06-26T01:45:50;16.30;;;7.50;;
18720;SDS011;9489;50.948;3.114;2023-06-26T01:48:20;15.57;;;7.47;;
18720;SDS011;9489;50.948;3.114;2023-06-26T01:50:51;18.25;;;8.30;;
18720;SDS011;9489;50.948;3.114;2023-06-26T01:53:18;17.23;;;7.70;;
18720;SDS011;9489;50.948;3.114;2023-06-26T01:56:05;13.65;;;6.95;;
18720;SDS011;9489;50.948;3.114;2023-06-26T01:58:33;12.75;;;7.38;;
18720;SDS011;9489;50.948;3.114;2023-06-26T02:01:01;14.38;;;6.70;;
18720;SDS011;9489;50.948;3.114;2023-06-26T02:03:27;15.85;;;7.65;;
18720;SDS011;9489;50.948;3.114;2023-06-26T02:05:53;17.08;;;7.75;;
18720;SDS011;9489;50.948;3.114;2023-06-26T02:08:18;18.13;;;7.28;;
18720;SDS011;9489;50.948;3.114;2023-06-26T02:10:44;16.92;;;7.18;;
18720;SDS011;9489;50.948;3.114;2023-06-26T02:13:10;16.77;;;6.93;;
18720;SDS011;9489;50.948;3.114;2023-06-26T02:15:35;11.48;;;6.03;;
18720;SDS011;9489;50.948;3.114;2023-06-26T02:18:01;11.45;;;5.60;;
18720;SDS011;9489;50.948;3.114;2023-06-26T02:20:27;14.65;;;6.38;;
18720;SDS011;9489;50.948;3.114;2023-06-26T02:22:52;16.10;;;6.38;;
18720;SDS011;9489;50.948;3.114;2023-06-26T02:25:18;15.60;;;6.18;;
18720;SDS011;9489;50.948;3.114;2023-06-26T02:27:44;11.18;;;5.70;;
18720;SDS011;9489;50.948;3.114;2023-06-26T02:30:09;14.48;;;6.20;;
18720;SDS011;9489;50.948;3.114;2023-06-26T02:32:35;11.50;;;5.63;;
18720;SDS011;9489;50.948;3.114;2023-06-26T02:35:01;12.57;;;5.78;;
18720;SDS011;9489;50.948;3.114;2023-06-26T02:37:27;13.00;;;5.30;;
18720;SDS011;9489;50.948;3.114;2023-06-26T02:39:52;11.98;;;4.88;;
18720;SDS011;9489;50.948;3.114;2023-06-26T02:42:18;12.98;;;5.95;;
18720;SDS011;9489;50.948;3.114;2023-06-26T02:44:43;10.68;;;4.90;;
18720;SDS011;9489;50.948;3.114;2023-06-26T02:47:09;14.40;;;5.03;;
18720;SDS011;9489;50.948;3.114;2023-06-26T02:49:35;12.82;;;4.80;;
18720;SDS011;9489;50.948;3.114;2023-06-26T02:52:00;13.60;;;5.22;;
18720;SDS011;9489;50.948;3.114;2023-06-26T02:54:26;10.18;;;4.90;;
18720;SDS011;9489;50.948;3.114;2023-06-26T02:56:52;10.23;;;4.13;;
18720;SDS011;9489;50.948;3.114;2023-06-26T02:59:17;12.63;;;4.53;;
18720;SDS011;9489;50.948;3.114;2023-06-26T03:01:43;10.95;;;4.53;;
18720;SDS011;9489;50.948;3.114;2023-06-26T03:04:09;14.88;;;5.25;;
18720;SDS011;9489;50.948;3.114;2023-06-26T03:06:35;12.00;;;4.78;;
18720;SDS011;9489;50.948;3.114;2023-06-26T03:09:02;10.88;;;4.57;;
18720;SDS011;9489;50.948;3.114;2023-06-26T03:11:28;10.65;;;4.57;;
18720;SDS011;9489;50.948;3.114;2023-06-26T03:13:53;13.88;;;4.50;;
18720;SDS011;9489;50.948;3.114;2023-06-26T03:16:19;15.57;;;4.75;;
18720;SDS011;9489;50.948;3.114;2023-06-26T03:18:45;11.93;;;4.20;;
18720;SDS011;9489;50.948;3.114;2023-06-26T03:21:10;10.90;;;3.95;;
18720;SDS011;9489;50.948;3.114;2023-06-26T03:23:37;7.70;;;3.42;;
18720;SDS011;9489;50.948;3.114;2023-06-26T03:26:03;8.00;;;3.78;;
18720;SDS011;9489;50.948;3.114;2023-06-26T03:28:28;8.88;;;3.30;;
18720;SDS011;9489;50.948;3.114;2023-06-26T03:30:56;10.25;;;3.55;;
18720;SDS011;9489;50.948;3.114;2023-06-26T03:33:21;8.70;;;3.60;;
18720;SDS011;9489;50.948;3.114;2023-06-26T03:35:47;8.07;;;3.20;;
18720;SDS011;9489;50.948;3.114;2023-06-26T03:38:13;11.38;;;3.67;;
18720;SDS011;9489;50.948;3.114;2023-06-26T03:40:38;10.43;;;3.90;;
18720;SDS011;9489;50.948;3.114;2023-06-26T03:43:04;8.68;;;3.42;;
18720;SDS011;9489;50.948;3.114;2023-06-26T03:45:30;9.65;;;3.22;;
18720;SDS011;9489;50.948;3.114;2023-06-26T03:47:55;6.95;;;3.15;;
18720;SDS011;9489;50.948;3.114;2023-06-26T03:50:21;7.93;;;2.92;;
18720;SDS011;9489;50.948;3.114;2023-06-26T03:52:47;7.43;;;3.15;;
18720;SDS011;9489;50.948;3.114;2023-06-26T03:55:12;7.53;;;3.63;;
18720;SDS011;9489;50.948;3.114;2023-06-26T03:57:38;5.45;;;2.47;;
18720;SDS011;9489;50.948;3.114;2023-06-26T04:00:04;9.57;;;3.17;;
18720;SDS011;9489;50.948;3.114;2023-06-26T04:02:37;8.60;;;2.60;;
18720;SDS011;9489;50.948;3.114;2023-06-26T04:05:04;6.22;;;2.80;;
18720;SDS011;9489;50.948;3.114;2023-06-26T04:07:30;7.90;;;2.95;;
18720;SDS011;9489;50.948;3.114;2023-06-26T04:09:56;7.25;;;2.92;;
18720;SDS011;9489;50.948;3.114;2023-06-26T04:12:22;6.43;;;2.15;;
18720;SDS011;9489;50.948;3.114;2023-06-26T04:14:48;8.85;;;2.42;;
18720;SDS011;9489;50.948;3.114;2023-06-26T04:17:13;5.00;;;2.53;;
18720;SDS011;9489;50.948;3.114;2023-06-26T04:19:39;7.53;;;2.60;;
18720;SDS011;9489;50.948;3.114;2023-06-26T04:22:05;6.22;;;2.53;;
18720;SDS011;9489;50.948;3.114;2023-06-26T04:24:31;9.30;;;2.80;;
18720;SDS011;9489;50.948;3.114;2023-06-26T04:26:56;7.57;;;2.38;;
18720;SDS011;9489;50.948;3.114;2023-06-26T04:29:31;6.85;;;3.25;;
18720;SDS011;9489;50.948;3.114;2023-06-26T04:31:56;4.22;;;2.20;;
18720;SDS011;9489;50.948;3.114;2023-06-26T04:34:26;4.85;;;2.40;;
18720;SDS011;9489;50.948;3.114;2023-06-26T04:36:53;7.00;;;2.50;;
18720;SDS011;9489;50.948;3.114;2023-06-26T04:39:19;6.38;;;2.88;;
18720;SDS011;9489;50.948;3.114;2023-06-26T04:41:45;6.00;;;2.40;;
18720;SDS011;9489;50.948;3.114;2023-06-26T04:44:10;5.93;;;2.45;;
18720;SDS011;9489;50.948;3.114;2023-06-26T04:46:37;6.20;;;2.33;;
18720;SDS011;9489;50.948;3.114;2023-06-26T04:49:06;6.90;;;2.65;;
18720;SDS011;9489;50.948;3.114;2023-06-26T04:51:32;5.32;;;2.83;;
18720;SDS011;9489;50.948;3.114;2023-06-26T04:53:58;4.30;;;2.53;;
18720;SDS011;9489;50.948;3.114;2023-06-26T04:56:23;4.03;;;2.13;;
18720;SDS011;9489;50.948;3.114;2023-06-26T04:58:49;7.93;;;2.42;;
18720;SDS011;9489;50.948;3.114;2023-06-26T05:01:15;7.60;;;2.50;;
18720;SDS011;9489;50.948;3.114;2023-06-26T05:03:40;7.72;;;2.30;;
18720;SDS011;9489;50.948;3.114;2023-06-26T05:06:06;7.57;;;2.35;;
18720;SDS011;9489;50.948;3.114;2023-06-26T05:08:32;3.83;;;2.83;;
18720;SDS011;9489;50.948;3.114;2023-06-26T05:10:57;4.75;;;2.35;;
18720;SDS011;9489;50.948;3.114;2023-06-26T05:13:24;5.70;;;2.38;;
18720;SDS011;9489;50.948;3.114;2023-06-26T05:15:51;6.90;;;2.67;;
18720;SDS011;9489;50.948;3.114;2023-06-26T05:18:17;4.77;;;2.60;;
18720;SDS011;9489;50.948;3.114;2023-06-26T05:20:43;3.78;;;2.50;;
18720;SDS011;9489;50.948;3.114;2023-06-26T05:23:09;7.00;;;2.58;;
18720;SDS011;9489;50.948;3.114;2023-06-26T05:25:37;4.22;;;2.20;;
18720;SDS011;9489;50.948;3.114;2023-06-26T05:28:03;5.78;;;2.63;;
18720;SDS011;9489;50.948;3.114;2023-06-26T05:30:30;4.43;;;2.30;;
18720;SDS011;9489;50.948;3.114;2023-06-26T05:32:59;7.00;;;2.80;;
18720;SDS011;9489;50.948;3.114;2023-06-26T05:35:26;5.22;;;2.40;;
18720;SDS011;9489;50.948;3.114;2023-06-26T05:37:55;6.47;;;2.47;;
18720;SDS011;9489;50.948;3.114;2023-06-26T05:40:20;4.38;;;2.65;;
18720;SDS011;9489;50.948;3.114;2023-06-26T05:42:46;4.90;;;2.30;;
18720;SDS011;9489;50.948;3.114;2023-06-26T05:45:12;4.53;;;2.20;;
18720;SDS011;9489;50.948;3.114;2023-06-26T05:47:38;5.57;;;2.65;;
18720;SDS011;9489;50.948;3.114;2023-06-26T05:50:04;6.07;;;2.60;;
18720;SDS011;9489;50.948;3.114;2023-06-26T05:52:30;6.18;;;2.75;;
18720;SDS011;9489;50.948;3.114;2023-06-26T05:54:56;7.75;;;3.08;;
18720;SDS011;9489;50.948;3.114;2023-06-26T05:57:28;4.13;;;2.33;;
18720;SDS011;9489;50.948;3.114;2023-06-26T05:59:55;6.13;;;2.40;;
18720;SDS011;9489;50.948;3.114;2023-06-26T06:02:21;4.55;;;2.50;;
18720;SDS011;9489;50.948;3.114;2023-06-26T06:04:47;5.63;;;2.33;;
18720;SDS011;9489;50.948;3.114;2023-06-26T06:07:13;7.97;;;2.67;;
18720;SDS011;9489;50.948;3.114;2023-06-26T06:09:39;4.32;;;2.33;;
18720;SDS011;9489;50.948;3.114;2023-06-26T06:12:05;7.00;;;2.78;;
18720;SDS011;9489;50.948;3.114;2023-06-26T06:14:32;5.00;;;2.10;;
18720;SDS011;9489;50.948;3.114;2023-06-26T06:16:58;2.85;;;2.60;;
18720;SDS011;9489;50.948;3.114;2023-06-26T06:19:24;6.25;;;2.60;;
18720;SDS011;9489;50.948;3.114;2023-06-26T06:21:49;8.10;;;3.53;;
18720;SDS011;9489;50.948;3.114;2023-06-26T06:24:15;3.97;;;2.85;;
18720;SDS011;9489;50.948;3.114;2023-06-26T06:26:41;7.93;;;2.72;;
18720;SDS011;9489;50.948;3.114;2023-06-26T06:29:06;6.53;;;2.72;;
18720;SDS011;9489;50.948;3.114;2023-06-26T06:31:32;4.93;;;2.63;;
18720;SDS011;9489;50.948;3.114;2023-06-26T06:33:57;6.10;;;3.00;;
18720;SDS011;9489;50.948;3.114;2023-06-26T06:36:23;8.20;;;2.85;;
18720;SDS011;9489;50.948;3.114;2023-06-26T06:38:49;8.38;;;3.80;;
18720;SDS011;9489;50.948;3.114;2023-06-26T06:41:14;6.20;;;2.90;;
18720;SDS011;9489;50.948;3.114;2023-06-26T06:43:41;7.07;;;3.08;;
18720;SDS011;9489;50.948;3.114;2023-06-26T06:46:07;5.93;;;2.63;;
18720;SDS011;9489;50.948;3.114;2023-06-26T06:48:33;6.63;;;3.00;;
18720;SDS011;9489;50.948;3.114;2023-06-26T06:50:59;5.50;;;2.65;;
18720;SDS011;9489;50.948;3.114;2023-06-26T06:53:25;5.50;;;2.22;;
18720;SDS011;9489;50.948;3.114;2023-06-26T06:55:51;5.20;;;2.55;;
18720;SDS011;9489;50.948;3.114;2023-06-26T06:58:16;4.63;;;2.55;;
18720;SDS011;9489;50.948;3.114;2023-06-26T07:00:44;6.35;;;2.42;;
18720;SDS011;9489;50.948;3.114;2023-06-26T07:03:09;5.00;;;2.90;;
18720;SDS011;9489;50.948;3.114;2023-06-26T07:05:35;8.02;;;2.75;;
18720;SDS011;9489;50.948;3.114;2023-06-26T07:08:01;5.38;;;2.80;;
18720;SDS011;9489;50.948;3.114;2023-06-26T07:10:28;6.78;;;2.90;;
18720;SDS011;9489;50.948;3.114;2023-06-26T07:12:53;5.30;;;2.90;;
18720;SDS011;9489;50.948;3.114;2023-06-26T07:15:19;5.43;;;2.90;;
18720;SDS011;9489;50.948;3.114;2023-06-26T07:17:45;6.57;;;2.90;;
18720;SDS011;9489;50.948;3.114;2023-06-26T07:20:10;5.55;;;2.67;;
18720;SDS011;9489;50.948;3.114;2023-06-26T07:22:40;8.25;;;2.80;;
18720;SDS011;9489;50.948;3.114;2023-06-26T07:25:06;7.57;;;2.80;;
18720;SDS011;9489;50.948;3.114;2023-06-26T07:27:35;5.57;;;2.60;;
18720;SDS011;9489;50.948;3.114;2023-06-26T07:30:01;6.68;;;2.53;;
18720;SDS011;9489;50.948;3.114;2023-06-26T07:32:28;6.40;;;3.05;;
18720;SDS011;9489;50.948;3.114;2023-06-26T07:34:53;4.78;;;2.63;;
18720;SDS011;9489;50.948;3.114;2023-06-26T07:37:19;5.43;;;3.00;;
18720;SDS011;9489;50.948;3.114;2023-06-26T07:39:44;4.55;;;2.58;;
18720;SDS011;9489;50.948;3.114;2023-06-26T07:42:10;6.93;;;3.00;;
18720;SDS011;9489;50.948;3.114;2023-06-26T07:44:36;5.82;;;2.60;;
18720;SDS011;9489;50.948;3.114;2023-06-26T07:47:01;6.45;;;3.10;;
18720;SDS011;9489;50.948;3.114;2023-06-26T07:49:27;6.85;;;3.20;;
18720;SDS011;9489;50.948;3.114;2023-06-26T07:51:53;6.18;;;3.10;;
18720;SDS011;9489;50.948;3.114;2023-06-26T07:54:19;8.07;;;4.13;;
18720;SDS011;9489;50.948;3.114;2023-06-26T07:59:22;6.47;;;3.17;;
18720;SDS011;9489;50.948;3.114;2023-06-26T08:01:49;5.75;;;3.13;;
18720;SDS011;9489;50.948;3.114;2023-06-26T08:04:17;6.57;;;3.35;;
18720;SDS011;9489;50.948;3.114;2023-06-26T08:06:45;6.68;;;3.03;;
18720;SDS011;9489;50.948;3.114;2023-06-26T08:09:12;5.47;;;3.40;;
18720;SDS011;9489;50.948;3.114;2023-06-26T08:11:38;7.18;;;3.53;;
18720;SDS011;9489;50.948;3.114;2023-06-26T08:14:04;7.28;;;3.28;;
18720;SDS011;9489;50.948;3.114;2023-06-26T08:16:29;5.30;;;3.15;;
18720;SDS011;9489;50.948;3.114;2023-06-26T08:18:55;4.85;;;2.80;;
18720;SDS011;9489;50.948;3.114;2023-06-26T08:21:21;6.15;;;2.92;;
18720;SDS011;9489;50.948;3.114;2023-06-26T08:23:46;5.32;;;3.03;;
18720;SDS011;9489;50.948;3.114;2023-06-26T08:26:13;7.18;;;2.88;;
18720;SDS011;9489;50.948;3.114;2023-06-26T08:28:38;4.38;;;2.33;;
18720;SDS011;9489;50.948;3.114;2023-06-26T08:31:04;4.30;;;2.63;;
18720;SDS011;9489;50.948;3.114;2023-06-26T08:33:30;4.60;;;3.08;;
18720;SDS011;9489;50.948;3.114;2023-06-26T08:35:55;4.97;;;3.00;;
18720;SDS011;9489;50.948;3.114;2023-06-26T08:38:21;6.63;;;2.90;;
18720;SDS011;9489;50.948;3.114;2023-06-26T08:40:47;4.45;;;2.40;;
18720;SDS011;9489;50.948;3.114;2023-06-26T08:43:13;6.55;;;2.63;;
18720;SDS011;9489;50.948;3.114;2023-06-26T08:45:39;4.63;;;2.50;;
18720;SDS011;9489;50.948;3.114;2023-06-26T08:48:07;3.70;;;2.03;;
18720;SDS011;9489;50.948;3.114;2023-06-26T08:50:34;4.75;;;2.63;;
18720;SDS011;9489;50.948;3.114;2023-06-26T08:55:36;3.20;;;1.77;;
18720;SDS011;9489;50.948;3.114;2023-06-26T08:58:06;3.85;;;2.40;;
18720;SDS011;9489;50.948;3.114;2023-06-26T09:00:31;4.15;;;2.30;;
18720;SDS011;9489;50.948;3.114;2023-06-26T09:02:57;4.18;;;2.05;;
18720;SDS011;9489;50.948;3.114;2023-06-26T09:05:23;4.32;;;2.13;;
18720;SDS011;9489;50.948;3.114;2023-06-26T09:07:52;5.95;;;2.53;;
18720;SDS011;9489;50.948;3.114;2023-06-26T09:10:20;6.35;;;2.50;;
18720;SDS011;9489;50.948;3.114;2023-06-26T09:12:49;6.68;;;2.65;;
18720;SDS011;9489;50.948;3.114;2023-06-26T09:15:15;5.47;;;2.25;;
18720;SDS011;9489;50.948;3.114;2023-06-26T09:17:44;8.15;;;2.15;;
18720;SDS011;9489;50.948;3.114;2023-06-26T09:20:10;3.15;;;2.03;;
18720;SDS011;9489;50.948;3.114;2023-06-26T09:22:36;4.93;;;1.92;;
18720;SDS011;9489;50.948;3.114;2023-06-26T09:25:04;2.58;;;1.65;;
18720;SDS011;9489;50.948;3.114;2023-06-26T09:27:30;2.63;;;1.85;;
18720;SDS011;9489;50.948;3.114;2023-06-26T09:29:57;3.33;;;1.80;;
18720;SDS011;9489;50.948;3.114;2023-06-26T09:32:26;3.03;;;1.88;;
18720;SDS011;9489;50.948;3.114;2023-06-26T09:34:53;4.40;;;2.03;;
18720;SDS011;9489;50.948;3.114;2023-06-26T09:37:20;5.30;;;1.92;;
18720;SDS011;9489;50.948;3.114;2023-06-26T09:39:47;3.10;;;1.70;;
18720;SDS011;9489;50.948;3.114;2023-06-26T09:42:13;3.83;;;1.83;;
18720;SDS011;9489;50.948;3.114;2023-06-26T09:44:45;4.03;;;1.70;;
18720;SDS011;9489;50.948;3.114;2023-06-26T09:47:11;4.38;;;2.38;;
18720;SDS011;9489;50.948;3.114;2023-06-26T09:49:40;3.38;;;1.98;;
18720;SDS011;9489;50.948;3.114;2023-06-26T09:52:08;4.05;;;1.80;;
18720;SDS011;9489;50.948;3.114;2023-06-26T09:54:33;3.22;;;1.45;;
18720;SDS011;9489;50.948;3.114;2023-06-26T09:57:17;5.35;;;1.98;;
18720;SDS011;9489;50.948;3.114;2023-06-26T09:59:43;2.63;;;1.45;;
18720;SDS011;9489;50.948;3.114;2023-06-26T10:02:12;3.97;;;1.50;;
18720;SDS011;9489;50.948;3.114;2023-06-26T10:04:38;2.75;;;1.60;;
18720;SDS011;9489;50.948;3.114;2023-06-26T10:07:13;5.53;;;3.28;;
18720;SDS011;9489;50.948;3.114;2023-06-26T10:09:42;3.35;;;2.13;;
18720;SDS011;9489;50.948;3.114;2023-06-26T10:14:43;3.88;;;1.95;;
18720;SDS011;9489;50.948;3.114;2023-06-26T10:17:13;2.83;;;1.63;;
18720;SDS011;9489;50.948;3.114;2023-06-26T10:19:43;3.08;;;1.48;;
18720;SDS011;9489;50.948;3.114;2023-06-26T10:22:11;2.15;;;1.50;;
18720;SDS011;9489;50.948;3.114;2023-06-26T10:24:40;3.65;;;1.67;;
18720;SDS011;9489;50.948;3.114;2023-06-26T10:27:16;5.15;;;2.05;;
18720;SDS011;9489;50.948;3.114;2023-06-26T10:29:49;2.33;;;1.70;;
18720;SDS011;9489;50.948;3.114;2023-06-26T10:32:19;3.72;;;1.92;;
18720;SDS011;9489;50.948;3.114;2023-06-26T10:34:47;3.83;;;2.22;;
18720;SDS011;9489;50.948;3.114;2023-06-26T10:37:13;2.92;;;1.67;;
18720;SDS011;9489;50.948;3.114;2023-06-26T10:39:48;3.92;;;1.92;;
18720;SDS011;9489;50.948;3.114;2023-06-26T10:42:16;3.13;;;1.80;;
18720;SDS011;9489;50.948;3.114;2023-06-26T10:44:43;3.35;;;1.77;;
18720;SDS011;9489;50.948;3.114;2023-06-26T10:47:10;4.32;;;1.77;;
18720;SDS011;9489;50.948;3.114;2023-06-26T10:49:37;2.88;;;1.63;;
18720;SDS011;9489;50.948;3.114;2023-06-26T10:52:07;5.50;;;2.28;;
18720;SDS011;9489;50.948;3.114;2023-06-26T10:54:33;2.25;;;1.30;;
18720;SDS011;9489;50.948;3.114;2023-06-26T10:57:01;2.53;;;1.90;;
18720;SDS011;9489;50.948;3.114;2023-06-26T10:59:27;4.03;;;1.80;;
18720;SDS011;9489;50.948;3.114;2023-06-26T11:02:01;3.53;;;2.85;;
18720;SDS011;9489;50.948;3.114;2023-06-26T11:07:18;5.00;;;3.42;;
18720;SDS011;9489;50.948;3.114;2023-06-26T11:09:58;3.35;;;1.77;;
18720;SDS011;9489;50.948;3.114;2023-06-26T11:12:44;5.78;;;2.22;;
18720;SDS011;9489;50.948;3.114;2023-06-26T11:15:13;2.72;;;1.45;;
18720;SDS011;9489;50.948;3.114;2023-06-26T11:17:44;4.15;;;2.20;;
18720;SDS011;9489;50.948;3.114;2023-06-26T11:20:12;3.75;;;2.00;;
18720;SDS011;9489;50.948;3.114;2023-06-26T11:22:39;4.22;;;1.80;;
18720;SDS011;9489;50.948;3.114;2023-06-26T11:25:06;3.38;;;1.80;;
18720;SDS011;9489;50.948;3.114;2023-06-26T11:27:43;3.97;;;2.00;;
18720;SDS011;9489;50.948;3.114;2023-06-26T11:30:10;5.78;;;2.33;;
18720;SDS011;9489;50.948;3.114;2023-06-26T11:32:47;4.72;;;1.73;;
18720;SDS011;9489;50.948;3.114;2023-06-26T11:35:13;2.78;;;2.17;;
18720;SDS011;9489;50.948;3.114;2023-06-26T11:37:48;3.20;;;1.88;;
18720;SDS011;9489;50.948;3.114;2023-06-26T11:40:19;2.92;;;1.92;;
18720;SDS011;9489;50.948;3.114;2023-06-26T11:42:46;4.50;;;2.10;;
18720;SDS011;9489;50.948;3.114;2023-06-26T11:45:12;6.88;;;2.47;;
18720;SDS011;9489;50.948;3.114;2023-06-26T11:47:38;2.63;;;1.85;;
18720;SDS011;9489;50.948;3.114;2023-06-26T11:50:04;3.33;;;2.22;;
18720;SDS011;9489;50.948;3.114;2023-06-26T11:52:32;4.72;;;2.10;;
18720;SDS011;9489;50.948;3.114;2023-06-26T11:54:58;3.72;;;1.60;;
18720;SDS011;9489;50.948;3.114;2023-06-26T11:57:23;2.13;;;1.75;;
18720;SDS011;9489;50.948;3.114;2023-06-26T11:59:49;2.33;;;1.48;;
18720;SDS011;9489;50.948;3.114;2023-06-26T12:02:16;2.55;;;1.67;;
18720;SDS011;9489;50.948;3.114;2023-06-26T12:04:42;4.13;;;2.17;;
18720;SDS011;9489;50.948;3.114;2023-06-26T12:07:09;4.25;;;2.42;;
18720;SDS011;9489;50.948;3.114;2023-06-26T12:09:39;3.30;;;2.45;;
18720;SDS011;9489;50.948;3.114;2023-06-26T12:12:07;3.78;;;2.10;;
18720;SDS011;9489;50.948;3.114;2023-06-26T12:14:33;3.90;;;2.10;;
18720;SDS011;9489;50.948;3.114;2023-06-26T12:17:12;3.63;;;2.10;;
18720;SDS011;9489;50.948;3.114;2023-06-26T12:19:42;4.03;;;2.65;;
18720;SDS011;9489;50.948;3.114;2023-06-26T12:22:09;5.97;;;2.28;;
18720;SDS011;9489;50.948;3.114;2023-06-26T12:24:39;2.92;;;1.85;;
18720;SDS011;9489;50.948;3.114;2023-06-26T12:27:14;3.63;;;2.35;;
18720;SDS011;9489;50.948;3.114;2023-06-26T12:29:49;6.18;;;2.10;;
18720;SDS011;9489;50.948;3.114;2023-06-26T12:32:18;6.75;;;2.53;;
18720;SDS011;9489;50.948;3.114;2023-06-26T12:34:47;4.78;;;2.22;;
18720;SDS011;9489;50.948;3.114;2023-06-26T12:37:15;6.15;;;2.42;;
18720;SDS011;9489;50.948;3.114;2023-06-26T12:39:51;4.40;;;2.03;;
18720;SDS011;9489;50.948;3.114;2023-06-26T12:42:25;3.63;;;1.92;;
18720;SDS011;9489;50.948;3.114;2023-06-26T12:44:52;6.00;;;2.40;;
18720;SDS011;9489;50.948;3.114;2023-06-26T12:47:28;4.85;;;2.65;;
18720;SDS011;9489;50.948;3.114;2023-06-26T12:49:56;4.65;;;1.95;;
18720;SDS011;9489;50.948;3.114;2023-06-26T12:52:22;3.95;;;1.80;;
18720;SDS011;9489;50.948;3.114;2023-06-26T12:54:51;2.45;;;2.25;;
18720;SDS011;9489;50.948;3.114;2023-06-26T12:57:18;2.45;;;1.88;;
18720;SDS011;9489;50.948;3.114;2023-06-26T12:59:44;3.42;;;2.22;;
18720;SDS011;9489;50.948;3.114;2023-06-26T13:02:10;2.83;;;1.60;;
18720;SDS011;9489;50.948;3.114;2023-06-26T13:04:36;4.85;;;2.10;;
18720;SDS011;9489;50.948;3.114;2023-06-26T13:07:05;5.13;;;1.77;;
18720;SDS011;9489;50.948;3.114;2023-06-26T13:09:32;4.70;;;1.83;;
18720;SDS011;9489;50.948;3.114;2023-06-26T13:11:59;2.25;;;1.48;;
18720;SDS011;9489;50.948;3.114;2023-06-26T13:14:25;3.35;;;1.70;;
18720;SDS011;9489;50.948;3.114;2023-06-26T13:16:51;4.18;;;1.60;;
18720;SDS011;9489;50.948;3.114;2023-06-26T13:19:16;4.00;;;1.88;;
18720;SDS011;9489;50.948;3.114;2023-06-26T13:21:42;2.97;;;1.60;;
18720;SDS011;9489;50.948;3.114;2023-06-26T13:24:08;3.40;;;1.50;;
18720;SDS011;9489;50.948;3.114;2023-06-26T13:26:34;2.28;;;1.48;;
18720;SDS011;9489;50.948;3.114;2023-06-26T13:29:01;2.15;;;1.45;;
18720;SDS011;9489;50.948;3.114;2023-06-26T13:31:27;3.47;;;1.77;;
18720;SDS011;9489;50.948;3.114;2023-06-26T13:33:53;1.88;;;1.30;;
18720;SDS011;9489;50.948;3.114;2023-06-26T13:36:22;3.40;;;1.90;;
18720;SDS011;9489;50.948;3.114;2023-06-26T13:38:48;2.67;;;1.70;;
18720;SDS011;9489;50.948;3.114;2023-06-26T13:41:20;2.28;;;1.38;;
18720;SDS011;9489;50.948;3.114;2023-06-26T13:43:47;3.00;;;1.67;;
18720;SDS011;9489;50.948;3.114;2023-06-26T13:46:12;3.22;;;1.60;;
18720;SDS011;9489;50.948;3.114;2023-06-26T13:48:38;2.60;;;1.63;;
18720;SDS011;9489;50.948;3.114;2023-06-26T13:51:03;1.90;;;1.45;;
18720;SDS011;9489;50.948;3.114;2023-06-26T13:53:29;1.60;;;1.40;;
18720;SDS011;9489;50.948;3.114;2023-06-26T13:55:55;2.35;;;1.48;;
18720;SDS011;9489;50.948;3.114;2023-06-26T13:58:20;2.42;;;1.40;;
18720;SDS011;9489;50.948;3.114;2023-06-26T14:00:47;2.30;;;1.60;;
18720;SDS011;9489;50.948;3.114;2023-06-26T14:03:13;7.85;;;2.15;;
18720;SDS011;9489;50.948;3.114;2023-06-26T14:05:38;3.42;;;1.63;;
18720;SDS011;9489;50.948;3.114;2023-06-26T14:08:05;3.95;;;1.70;;
18720;SDS011;9489;50.948;3.114;2023-06-26T14:10:33;4.82;;;2.38;;
18720;SDS011;9489;50.948;3.114;2023-06-26T14:13:00;2.20;;;1.67;;
18720;SDS011;9489;50.948;3.114;2023-06-26T14:15:26;3.05;;;1.80;;
18720;SDS011;9489;50.948;3.114;2023-06-26T14:17:51;3.80;;;2.25;;
18720;SDS011;9489;50.948;3.114;2023-06-26T14:20:17;2.28;;;1.70;;
18720;SDS011;9489;50.948;3.114;2023-06-26T14:22:47;3.65;;;2.78;;
18720;SDS011;9489;50.948;3.114;2023-06-26T14:25:13;3.88;;;1.90;;
18720;SDS011;9489;50.948;3.114;2023-06-26T14:27:38;4.53;;;1.95;;
18720;SDS011;9489;50.948;3.114;2023-06-26T14:30:04;3.38;;;1.80;;
18720;SDS011;9489;50.948;3.114;2023-06-26T14:32:32;4.25;;;1.92;;
18720;SDS011;9489;50.948;3.114;2023-06-26T14:34:58;3.83;;;2.10;;
18720;SDS011;9489;50.948;3.114;2023-06-26T14:37:25;3.85;;;1.90;;
18720;SDS011;9489;50.948;3.114;2023-06-26T14:39:51;4.15;;;2.20;;
18720;SDS011;9489;50.948;3.114;2023-06-26T14:42:17;4.82;;;2.05;;
18720;SDS011;9489;50.948;3.114;2023-06-26T14:44:43;3.40;;;1.90;;
18720;SDS011;9489;50.948;3.114;2023-06-26T14:47:12;7.57;;;2.00;;
18720;SDS011;9489;50.948;3.114;2023-06-26T14:49:38;4.65;;;2.00;;
18720;SDS011;9489;50.948;3.114;2023-06-26T14:52:04;4.88;;;2.42;;
18720;SDS011;9489;50.948;3.114;2023-06-26T14:54:30;4.65;;;2.47;;
18720;SDS011;9489;50.948;3.114;2023-06-26T14:56:57;4.18;;;2.17;;
18720;SDS011;9489;50.948;3.114;2023-06-26T14:59:23;4.47;;;2.20;;
18720;SDS011;9489;50.948;3.114;2023-06-26T15:01:49;4.25;;;2.05;;
18720;SDS011;9489;50.948;3.114;2023-06-26T15:04:14;4.45;;;1.80;;
18720;SDS011;9489;50.948;3.114;2023-06-26T15:06:40;4.75;;;1.90;;
18720;SDS011;9489;50.948;3.114;2023-06-26T15:09:06;4.70;;;1.88;;
18720;SDS011;9489;50.948;3.114;2023-06-26T15:11:31;4.95;;;2.85;;
18720;SDS011;9489;50.948;3.114;2023-06-26T15:13:57;4.82;;;2.33;;
18720;SDS011;9489;50.948;3.114;2023-06-26T15:16:23;6.57;;;2.88;;